sensor_id;sensor_type;location;lat;lon;timestamp;temperature;humidity
46732;DHT22;32477;51.474;5.696;2023-02-28T00:00:39;-1.60;99.90
46732;DHT22;32477;51.474;5.696;2023-02-28T00:03:05;-1.60;99.90
46732;DHT22;32477;51.474;5.696;2023-02-28T00:05:31;-1.60;99.90
46732;DHT22;32477;51.474;5.696;2023-02-28T00:07:57;-1.70;99.90
46732;DHT22;32477;51.474;5.696;2023-02-28T00:10:26;-1.70;99.90
46732;DHT22;32477;51.474;5.696;2023-02-28T00:12:53;-1.80;99.90
46732;DHT22;32477;51.474;5.696;2023-02-28T00:15:19;-1.80;99.90
46732;DHT22;32477;51.474;5.696;2023-02-28T00:17:45;-1.70;99.90
46732;DHT22;32477;51.474;5.696;2023-02-28T00:20:12;-1.80;99.90
46732;DHT22;32477;51.474;5.696;2023-02-28T00:22:39;-1.80;99.90
46732;DHT22;32477;51.474;5.696;2023-02-28T00:25:06;-1.70;99.90
46732;DHT22;32477;51.474;5.696;2023-02-28T00:27:33;-1.60;99.90
46732;DHT22;32477;51.474;5.696;2023-02-28T00:29:59;-1.50;99.90
46732;DHT22;32477;51.474;5.696;2023-02-28T00:32:25;-1.40;99.90
46732;DHT22;32477;51.474;5.696;2023-02-28T00:34:50;-1.40;99.90
46732;DHT22;32477;51.474;5.696;2023-02-28T00:37:16;-1.30;99.90
46732;DHT22;32477;51.474;5.696;2023-02-28T00:39:42;-1.20;99.90
46732;DHT22;32477;51.474;5.696;2023-02-28T00:42:07;-1.20;99.90
46732;DHT22;32477;51.474;5.696;2023-02-28T00:44:33;-1.30;99.90
46732;DHT22;32477;51.474;5.696;2023-02-28T00:46:59;-1.40;99.90
46732;DHT22;32477;51.474;5.696;2023-02-28T00:49:28;-1.40;99.90
46732;DHT22;32477;51.474;5.696;2023-02-28T00:51:55;-1.50;99.90
46732;DHT22;32477;51.474;5.696;2023-02-28T00:54:21;-1.60;99.90
46732;DHT22;32477;51.474;5.696;2023-02-28T00:56:47;-1.60;99.90
46732;DHT22;32477;51.474;5.696;2023-02-28T00:59:14;-1.60;99.90
46732;DHT22;32477;51.474;5.696;2023-02-28T01:01:41;-1.60;99.90
46732;DHT22;32477;51.474;5.696;2023-02-28T01:04:06;-1.80;99.90
46732;DHT22;32477;51.474;5.696;2023-02-28T01:06:32;-2.00;99.90
46732;DHT22;32477;51.474;5.696;2023-02-28T01:08:59;-2.10;99.90
46732;DHT22;32477;51.474;5.696;2023-02-28T01:11:25;-2.30;99.90
46732;DHT22;32477;51.474;5.696;2023-02-28T01:13:51;-2.50;99.90
46732;DHT22;32477;51.474;5.696;2023-02-28T01:16:17;-2.60;99.90
46732;DHT22;32477;51.474;5.696;2023-02-28T01:18:43;-2.70;99.90
46732;DHT22;32477;51.474;5.696;2023-02-28T01:21:14;-2.80;99.90
46732;DHT22;32477;51.474;5.696;2023-02-28T01:23:40;-2.90;99.90
46732;DHT22;32477;51.474;5.696;2023-02-28T01:26:08;-3.00;99.90
46732;DHT22;32477;51.474;5.696;2023-02-28T01:28:34;-2.90;99.90
46732;DHT22;32477;51.474;5.696;2023-02-28T01:31:00;-2.70;99.90
46732;DHT22;32477;51.474;5.696;2023-02-28T01:33:26;-2.50;99.90
46732;DHT22;32477;51.474;5.696;2023-02-28T01:36:03;-2.50;99.90
46732;DHT22;32477;51.474;5.696;2023-02-28T01:38:29;-2.40;99.90
46732;DHT22;32477;51.474;5.696;2023-02-28T01:40:55;-2.30;99.90
46732;DHT22;32477;51.474;5.696;2023-02-28T01:43:25;-2.20;99.90
46732;DHT22;32477;51.474;5.696;2023-02-28T01:45:52;-2.40;99.90
46732;DHT22;32477;51.474;5.696;2023-02-28T01:48:19;-2.40;99.90
46732;DHT22;32477;51.474;5.696;2023-02-28T01:50:47;-2.30;99.90
46732;DHT22;32477;51.474;5.696;2023-02-28T01:53:17;-2.40;99.90
46732;DHT22;32477;51.474;5.696;2023-02-28T01:55:48;-2.40;99.90
46732;DHT22;32477;51.474;5.696;2023-02-28T01:58:15;-2.40;99.90
46732;DHT22;32477;51.474;5.696;2023-02-28T02:00:41;-2.40;99.90
46732;DHT22;32477;51.474;5.696;2023-02-28T02:03:13;-2.50;99.90
46732;DHT22;32477;51.474;5.696;2023-02-28T02:05:40;-2.50;99.90
46732;DHT22;32477;51.474;5.696;2023-02-28T02:08:15;-2.40;99.90
46732;DHT22;32477;51.474;5.696;2023-02-28T02:10:45;-2.30;99.90
46732;DHT22;32477;51.474;5.696;2023-02-28T02:18:51;-2.30;99.90
46732;DHT22;32477;51.474;5.696;2023-02-28T02:21:44;-2.30;99.90
46732;DHT22;32477;51.474;5.696;2023-02-28T02:26:55;-2.20;99.90
46732;DHT22;32477;51.474;5.696;2023-02-28T02:32:28;-2.40;99.90
46732;DHT22;32477;51.474;5.696;2023-02-28T02:35:17;-2.50;99.90
46732;DHT22;32477;51.474;5.696;2023-02-28T02:37:53;-2.60;99.90
46732;DHT22;32477;51.474;5.696;2023-02-28T02:40:23;-2.60;99.90
46732;DHT22;32477;51.474;5.696;2023-02-28T02:43:12;-2.60;99.90
46732;DHT22;32477;51.474;5.696;2023-02-28T02:45:49;-2.60;99.90
46732;DHT22;32477;51.474;5.696;2023-02-28T02:48:20;-2.50;99.90
46732;DHT22;32477;51.474;5.696;2023-02-28T02:50:51;-2.40;99.90
46732;DHT22;32477;51.474;5.696;2023-02-28T02:53:22;-2.40;99.90
46732;DHT22;32477;51.474;5.696;2023-02-28T02:55:51;-2.20;99.90
46732;DHT22;32477;51.474;5.696;2023-02-28T02:58:22;-2.10;99.90
46732;DHT22;32477;51.474;5.696;2023-02-28T03:00:53;-2.00;99.90
46732;DHT22;32477;51.474;5.696;2023-02-28T03:03:20;-2.00;99.90
46732;DHT22;32477;51.474;5.696;2023-02-28T03:05:55;-1.90;99.90
46732;DHT22;32477;51.474;5.696;2023-02-28T03:08:22;-1.90;99.90
46732;DHT22;32477;51.474;5.696;2023-02-28T03:11:11;-1.90;99.90
46732;DHT22;32477;51.474;5.696;2023-02-28T03:19:21;-1.50;99.90
46732;DHT22;32477;51.474;5.696;2023-02-28T03:30:47;-1.30;99.90
46732;DHT22;32477;51.474;5.696;2023-02-28T03:33:23;-1.20;99.90
46732;DHT22;32477;51.474;5.696;2023-02-28T03:35:57;-1.30;99.90
46732;DHT22;32477;51.474;5.696;2023-02-28T03:41:52;-1.20;99.90
46732;DHT22;32477;51.474;5.696;2023-02-28T03:44:28;-1.10;99.90
46732;DHT22;32477;51.474;5.696;2023-02-28T03:47:12;-0.90;99.90
46732;DHT22;32477;51.474;5.696;2023-02-28T03:52:35;-0.80;99.90
46732;DHT22;32477;51.474;5.696;2023-02-28T03:55:08;-0.70;99.90
46732;DHT22;32477;51.474;5.696;2023-02-28T03:57:43;-0.70;99.90
46732;DHT22;32477;51.474;5.696;2023-02-28T04:00:19;-0.60;99.90
46732;DHT22;32477;51.474;5.696;2023-02-28T04:02:45;-0.60;99.90
46732;DHT22;32477;51.474;5.696;2023-02-28T04:05:11;-0.60;99.90
46732;DHT22;32477;51.474;5.696;2023-02-28T04:07:37;-0.60;99.90
46732;DHT22;32477;51.474;5.696;2023-02-28T04:10:03;-0.70;99.90
46732;DHT22;32477;51.474;5.696;2023-02-28T04:12:29;-0.60;99.90
46732;DHT22;32477;51.474;5.696;2023-02-28T04:14:55;-0.50;99.90
46732;DHT22;32477;51.474;5.696;2023-02-28T04:17:20;-0.40;99.90
46732;DHT22;32477;51.474;5.696;2023-02-28T04:19:46;-0.30;99.90
46732;DHT22;32477;51.474;5.696;2023-02-28T04:22:12;-0.20;99.90
46732;DHT22;32477;51.474;5.696;2023-02-28T04:24:38;-0.10;99.90
46732;DHT22;32477;51.474;5.696;2023-02-28T04:27:06;-0.10;99.90
46732;DHT22;32477;51.474;5.696;2023-02-28T04:29:32;-0.20;99.90
46732;DHT22;32477;51.474;5.696;2023-02-28T04:31:58;-0.10;99.90
46732;DHT22;32477;51.474;5.696;2023-02-28T04:34:26;-0.10;99.90
46732;DHT22;32477;51.474;5.696;2023-02-28T04:36:54;-0.10;99.90
46732;DHT22;32477;51.474;5.696;2023-02-28T04:39:21;-0.20;99.90
46732;DHT22;32477;51.474;5.696;2023-02-28T04:41:47;-0.10;99.90
46732;DHT22;32477;51.474;5.696;2023-02-28T04:44:13;-0.20;99.90
46732;DHT22;32477;51.474;5.696;2023-02-28T04:46:38;-0.10;99.90
46732;DHT22;32477;51.474;5.696;2023-02-28T04:49:04;-0.10;99.90
46732;DHT22;32477;51.474;5.696;2023-02-28T04:51:30;-0.10;99.90
46732;DHT22;32477;51.474;5.696;2023-02-28T04:53:56;-0.10;99.90
46732;DHT22;32477;51.474;5.696;2023-02-28T04:56:22;-0.10;99.90
46732;DHT22;32477;51.474;5.696;2023-02-28T04:58:48;-0.10;99.90
46732;DHT22;32477;51.474;5.696;2023-02-28T05:01:25;-0.10;99.90
46732;DHT22;32477;51.474;5.696;2023-02-28T05:03:52;-0.30;99.90
46732;DHT22;32477;51.474;5.696;2023-02-28T05:06:18;-0.30;99.90
46732;DHT22;32477;51.474;5.696;2023-02-28T05:08:45;-0.30;99.90
46732;DHT22;32477;51.474;5.696;2023-02-28T05:13:41;-0.40;99.90
46732;DHT22;32477;51.474;5.696;2023-02-28T05:16:07;-0.30;99.90
46732;DHT22;32477;51.474;5.696;2023-02-28T05:18:33;-0.20;99.90
46732;DHT22;32477;51.474;5.696;2023-02-28T05:21:00;-0.20;99.90
46732;DHT22;32477;51.474;5.696;2023-02-28T05:23:27;-0.20;99.90
46732;DHT22;32477;51.474;5.696;2023-02-28T05:25:53;-0.20;99.90
46732;DHT22;32477;51.474;5.696;2023-02-28T05:28:19;-0.20;99.90
46732;DHT22;32477;51.474;5.696;2023-02-28T05:30:45;-0.20;99.90
46732;DHT22;32477;51.474;5.696;2023-02-28T05:33:12;-0.10;99.90
46732;DHT22;32477;51.474;5.696;2023-02-28T05:35:41;-0.10;99.90
46732;DHT22;32477;51.474;5.696;2023-02-28T05:38:10;-0.10;99.90
46732;DHT22;32477;51.474;5.696;2023-02-28T05:40:38;-0.10;99.90
46732;DHT22;32477;51.474;5.696;2023-02-28T05:43:04;-0.10;99.90
46732;DHT22;32477;51.474;5.696;2023-02-28T05:45:30;-0.20;99.90
46732;DHT22;32477;51.474;5.696;2023-02-28T05:47:56;-0.20;99.90
46732;DHT22;32477;51.474;5.696;2023-02-28T05:50:21;-0.20;99.90
46732;DHT22;32477;51.474;5.696;2023-02-28T05:52:51;-0.30;99.90
46732;DHT22;32477;51.474;5.696;2023-02-28T05:55:17;-0.20;99.90
46732;DHT22;32477;51.474;5.696;2023-02-28T05:57:43;-0.30;99.90
46732;DHT22;32477;51.474;5.696;2023-02-28T06:00:10;-0.30;99.90
46732;DHT22;32477;51.474;5.696;2023-02-28T06:02:36;-0.30;99.90
46732;DHT22;32477;51.474;5.696;2023-02-28T06:05:01;-0.30;99.90
46732;DHT22;32477;51.474;5.696;2023-02-28T06:07:27;-0.20;99.90
46732;DHT22;32477;51.474;5.696;2023-02-28T06:09:52;-0.30;99.90
46732;DHT22;32477;51.474;5.696;2023-02-28T06:12:18;-0.30;99.90
46732;DHT22;32477;51.474;5.696;2023-02-28T06:14:44;-0.30;99.90
46732;DHT22;32477;51.474;5.696;2023-02-28T06:17:09;-0.30;99.90
46732;DHT22;32477;51.474;5.696;2023-02-28T06:19:37;-0.40;99.90
46732;DHT22;32477;51.474;5.696;2023-02-28T06:22:04;-0.40;99.90
46732;DHT22;32477;51.474;5.696;2023-02-28T06:24:30;-0.50;99.90
46732;DHT22;32477;51.474;5.696;2023-02-28T06:26:56;-0.50;99.90
46732;DHT22;32477;51.474;5.696;2023-02-28T06:29:24;-0.50;99.90
46732;DHT22;32477;51.474;5.696;2023-02-28T06:31:50;-0.40;99.90
46732;DHT22;32477;51.474;5.696;2023-02-28T06:34:16;-0.50;99.90
46732;DHT22;32477;51.474;5.696;2023-02-28T06:36:42;-0.50;99.90
46732;DHT22;32477;51.474;5.696;2023-02-28T06:39:09;-0.50;99.90
46732;DHT22;32477;51.474;5.696;2023-02-28T06:41:35;-0.50;99.90
46732;DHT22;32477;51.474;5.696;2023-02-28T06:44:05;-0.60;99.90
46732;DHT22;32477;51.474;5.696;2023-02-28T06:46:36;-0.60;99.90
46732;DHT22;32477;51.474;5.696;2023-02-28T06:49:03;-0.60;99.90
46732;DHT22;32477;51.474;5.696;2023-02-28T06:51:29;-0.60;99.90
46732;DHT22;32477;51.474;5.696;2023-02-28T06:53:54;-0.60;99.90
46732;DHT22;32477;51.474;5.696;2023-02-28T06:56:20;-0.70;99.90
46732;DHT22;32477;51.474;5.696;2023-02-28T06:58:47;-0.60;99.90
46732;DHT22;32477;51.474;5.696;2023-02-28T07:01:13;-0.70;99.90
46732;DHT22;32477;51.474;5.696;2023-02-28T07:03:39;-0.70;99.90
46732;DHT22;32477;51.474;5.696;2023-02-28T07:06:05;-0.70;99.90
46732;DHT22;32477;51.474;5.696;2023-02-28T07:08:31;-0.60;99.90
46732;DHT22;32477;51.474;5.696;2023-02-28T07:10:57;-0.50;99.90
46732;DHT22;32477;51.474;5.696;2023-02-28T07:13:23;-0.50;99.90
46732;DHT22;32477;51.474;5.696;2023-02-28T07:15:55;-0.40;99.90
46732;DHT22;32477;51.474;5.696;2023-02-28T07:18:22;-0.40;99.90
46732;DHT22;32477;51.474;5.696;2023-02-28T07:20:48;-0.30;99.90
46732;DHT22;32477;51.474;5.696;2023-02-28T07:23:13;-0.20;99.90
46732;DHT22;32477;51.474;5.696;2023-02-28T07:25:39;-0.10;99.90
46732;DHT22;32477;51.474;5.696;2023-02-28T07:28:05;-0.10;99.90
46732;DHT22;32477;51.474;5.696;2023-02-28T07:30:30;0.00;99.90
46732;DHT22;32477;51.474;5.696;2023-02-28T07:32:56;0.00;99.90
46732;DHT22;32477;51.474;5.696;2023-02-28T07:35:22;0.20;99.90
46732;DHT22;32477;51.474;5.696;2023-02-28T07:37:48;0.30;99.90
46732;DHT22;32477;51.474;5.696;2023-02-28T07:40:14;0.40;99.90
46732;DHT22;32477;51.474;5.696;2023-02-28T07:42:41;0.40;99.90
46732;DHT22;32477;51.474;5.696;2023-02-28T07:45:08;0.50;99.90
46732;DHT22;32477;51.474;5.696;2023-02-28T07:47:37;0.60;99.90
46732;DHT22;32477;51.474;5.696;2023-02-28T07:50:04;0.80;99.90
46732;DHT22;32477;51.474;5.696;2023-02-28T07:52:30;0.80;99.90
46732;DHT22;32477;51.474;5.696;2023-02-28T07:54:56;0.90;99.90
46732;DHT22;32477;51.474;5.696;2023-02-28T07:57:22;1.00;99.90
46732;DHT22;32477;51.474;5.696;2023-02-28T07:59:47;1.40;99.90
46732;DHT22;32477;51.474;5.696;2023-02-28T08:02:18;1.80;99.90
46732;DHT22;32477;51.474;5.696;2023-02-28T08:04:44;2.30;99.90
46732;DHT22;32477;51.474;5.696;2023-02-28T08:07:10;2.90;99.90
46732;DHT22;32477;51.474;5.696;2023-02-28T08:09:39;3.70;99.90
46732;DHT22;32477;51.474;5.696;2023-02-28T08:12:05;3.70;99.90
46732;DHT22;32477;51.474;5.696;2023-02-28T08:14:31;3.40;99.90
46732;DHT22;32477;51.474;5.696;2023-02-28T08:16:56;3.20;99.90
46732;DHT22;32477;51.474;5.696;2023-02-28T08:19:22;3.40;99.90
46732;DHT22;32477;51.474;5.696;2023-02-28T08:21:48;4.20;99.90
46732;DHT22;32477;51.474;5.696;2023-02-28T08:24:13;5.10;99.90
46732;DHT22;32477;51.474;5.696;2023-02-28T08:26:39;5.50;99.90
46732;DHT22;32477;51.474;5.696;2023-02-28T08:29:05;6.20;99.90
46732;DHT22;32477;51.474;5.696;2023-02-28T08:31:30;6.70;99.60
46732;DHT22;32477;51.474;5.696;2023-02-28T08:33:56;7.20;98.70
46732;DHT22;32477;51.474;5.696;2023-02-28T08:36:25;6.70;98.00
46732;DHT22;32477;51.474;5.696;2023-02-28T08:38:51;7.20;97.90
46732;DHT22;32477;51.474;5.696;2023-02-28T08:41:17;7.30;96.70
46732;DHT22;32477;51.474;5.696;2023-02-28T08:43:43;7.30;96.10
46732;DHT22;32477;51.474;5.696;2023-02-28T08:46:11;7.90;95.30
46732;DHT22;32477;51.474;5.696;2023-02-28T08:48:37;7.80;94.00
46732;DHT22;32477;51.474;5.696;2023-02-28T08:51:06;7.90;93.50
46732;DHT22;32477;51.474;5.696;2023-02-28T08:53:32;8.30;93.00
46732;DHT22;32477;51.474;5.696;2023-02-28T08:56:05;8.60;93.30
46732;DHT22;32477;51.474;5.696;2023-02-28T08:58:31;8.30;93.20
46732;DHT22;32477;51.474;5.696;2023-02-28T09:00:57;7.90;92.20
46732;DHT22;32477;51.474;5.696;2023-02-28T09:03:23;7.70;91.10
46732;DHT22;32477;51.474;5.696;2023-02-28T09:05:56;7.90;92.00
46732;DHT22;32477;51.474;5.696;2023-02-28T09:08:26;8.50;90.30
46732;DHT22;32477;51.474;5.696;2023-02-28T09:10:52;8.30;87.20
46732;DHT22;32477;51.474;5.696;2023-02-28T09:13:18;8.50;88.30
46732;DHT22;32477;51.474;5.696;2023-02-28T09:15:44;8.80;83.60
46732;DHT22;32477;51.474;5.696;2023-02-28T09:18:10;7.80;83.70
46732;DHT22;32477;51.474;5.696;2023-02-28T09:20:40;8.60;83.40
46732;DHT22;32477;51.474;5.696;2023-02-28T09:23:07;7.70;80.10
46732;DHT22;32477;51.474;5.696;2023-02-28T09:25:34;8.10;81.50
46732;DHT22;32477;51.474;5.696;2023-02-28T09:27:59;8.00;77.70
46732;DHT22;32477;51.474;5.696;2023-02-28T09:30:25;8.10;78.90
46732;DHT22;32477;51.474;5.696;2023-02-28T09:32:51;8.00;80.10
46732;DHT22;32477;51.474;5.696;2023-02-28T09:35:21;8.60;77.80
46732;DHT22;32477;51.474;5.696;2023-02-28T09:37:48;8.50;77.20
46732;DHT22;32477;51.474;5.696;2023-02-28T09:40:15;8.90;77.40
46732;DHT22;32477;51.474;5.696;2023-02-28T09:42:46;9.20;74.20
46732;DHT22;32477;51.474;5.696;2023-02-28T09:45:35;9.50;75.70
46732;DHT22;32477;51.474;5.696;2023-02-28T09:48:23;9.30;73.40
46732;DHT22;32477;51.474;5.696;2023-02-28T09:50:59;8.00;74.60
46732;DHT22;32477;51.474;5.696;2023-02-28T09:53:35;8.10;74.20
46732;DHT22;32477;51.474;5.696;2023-02-28T09:56:26;8.50;73.40
46732;DHT22;32477;51.474;5.696;2023-02-28T09:58:58;8.20;73.70
46732;DHT22;32477;51.474;5.696;2023-02-28T10:07:04;7.90;72.80
46732;DHT22;32477;51.474;5.696;2023-02-28T10:09:33;8.00;71.30
46732;DHT22;32477;51.474;5.696;2023-02-28T10:12:05;8.50;71.40
46732;DHT22;32477;51.474;5.696;2023-02-28T10:14:33;9.20;72.10
46732;DHT22;32477;51.474;5.696;2023-02-28T10:17:04;8.80;71.40
46732;DHT22;32477;51.474;5.696;2023-02-28T10:19:39;9.80;71.50
46732;DHT22;32477;51.474;5.696;2023-02-28T10:22:22;9.50;68.10
46732;DHT22;32477;51.474;5.696;2023-02-28T10:24:51;9.70;70.10
46732;DHT22;32477;51.474;5.696;2023-02-28T10:27:23;9.80;68.30
46732;DHT22;32477;51.474;5.696;2023-02-28T10:29:54;9.20;68.80
46732;DHT22;32477;51.474;5.696;2023-02-28T10:32:25;9.50;68.90
46732;DHT22;32477;51.474;5.696;2023-02-28T10:37:36;10.10;69.30
46732;DHT22;32477;51.474;5.696;2023-02-28T10:40:06;9.20;68.40
46732;DHT22;32477;51.474;5.696;2023-02-28T10:42:32;9.20;69.40
46732;DHT22;32477;51.474;5.696;2023-02-28T10:47:49;9.30;67.60
46732;DHT22;32477;51.474;5.696;2023-02-28T10:52:53;9.10;69.10
46732;DHT22;32477;51.474;5.696;2023-02-28T10:55:24;9.60;67.80
46732;DHT22;32477;51.474;5.696;2023-02-28T10:57:51;9.30;68.50
46732;DHT22;32477;51.474;5.696;2023-02-28T11:00:20;9.80;67.10
46732;DHT22;32477;51.474;5.696;2023-02-28T11:02:47;9.50;67.20
46732;DHT22;32477;51.474;5.696;2023-02-28T11:05:31;9.30;68.00
46732;DHT22;32477;51.474;5.696;2023-02-28T11:08:16;9.40;68.90
46732;DHT22;32477;51.474;5.696;2023-02-28T11:10:54;8.80;68.10
46732;DHT22;32477;51.474;5.696;2023-02-28T11:13:26;9.30;68.90
46732;DHT22;32477;51.474;5.696;2023-02-28T11:15:59;9.40;67.10
46732;DHT22;32477;51.474;5.696;2023-02-28T11:18:49;9.10;68.40
46732;DHT22;32477;51.474;5.696;2023-02-28T11:23:52;9.10;67.10
46732;DHT22;32477;51.474;5.696;2023-02-28T11:26:45;9.30;68.80
46732;DHT22;32477;51.474;5.696;2023-02-28T11:29:19;9.20;69.30
46732;DHT22;32477;51.474;5.696;2023-02-28T11:34:27;9.50;67.70
46732;DHT22;32477;51.474;5.696;2023-02-28T11:36:54;9.90;67.70
46732;DHT22;32477;51.474;5.696;2023-02-28T11:39:22;9.70;67.00
46732;DHT22;32477;51.474;5.696;2023-02-28T11:50:40;10.70;66.10
46732;DHT22;32477;51.474;5.696;2023-02-28T11:53:21;10.30;65.80
46732;DHT22;32477;51.474;5.696;2023-02-28T11:55:58;9.90;66.70
46732;DHT22;32477;51.474;5.696;2023-02-28T12:04:13;9.10;66.60
46732;DHT22;32477;51.474;5.696;2023-02-28T12:06:58;9.30;68.00
46732;DHT22;32477;51.474;5.696;2023-02-28T12:09:38;10.00;68.10
46732;DHT22;32477;51.474;5.696;2023-02-28T12:21:08;9.70;67.10
46732;DHT22;32477;51.474;5.696;2023-02-28T12:26:42;10.50;68.00
46732;DHT22;32477;51.474;5.696;2023-02-28T12:29:28;10.90;67.70
46732;DHT22;32477;51.474;5.696;2023-02-28T12:32:13;10.70;67.30
46732;DHT22;32477;51.474;5.696;2023-02-28T12:34:46;9.50;67.40
46732;DHT22;32477;51.474;5.696;2023-02-28T12:37:45;8.90;69.10
46732;DHT22;32477;51.474;5.696;2023-02-28T12:40:13;8.60;68.70
46732;DHT22;32477;51.474;5.696;2023-02-28T12:42:55;9.40;67.50
46732;DHT22;32477;51.474;5.696;2023-02-28T12:45:24;9.40;69.50
46732;DHT22;32477;51.474;5.696;2023-02-28T12:47:57;9.40;69.60
46732;DHT22;32477;51.474;5.696;2023-02-28T12:50:26;9.20;69.20
46732;DHT22;32477;51.474;5.696;2023-02-28T12:56:13;10.60;66.60
46732;DHT22;32477;51.474;5.696;2023-02-28T12:58:48;11.00;67.10
46732;DHT22;32477;51.474;5.696;2023-02-28T13:01:33;11.90;66.80
46732;DHT22;32477;51.474;5.696;2023-02-28T13:04:08;10.90;65.30
46732;DHT22;32477;51.474;5.696;2023-02-28T13:09:29;10.00;67.00
46732;DHT22;32477;51.474;5.696;2023-02-28T13:11:56;10.00;66.00
46732;DHT22;32477;51.474;5.696;2023-02-28T13:19:43;10.00;68.80
46732;DHT22;32477;51.474;5.696;2023-02-28T13:22:41;10.00;66.10
46732;DHT22;32477;51.474;5.696;2023-02-28T13:27:57;10.10;66.60
46732;DHT22;32477;51.474;5.696;2023-02-28T13:38:49;9.40;67.00
46732;DHT22;32477;51.474;5.696;2023-02-28T13:46:32;10.20;66.90
46732;DHT22;32477;51.474;5.696;2023-02-28T13:57:42;10.50;67.30
46732;DHT22;32477;51.474;5.696;2023-02-28T14:00:28;10.70;66.90
46732;DHT22;32477;51.474;5.696;2023-02-28T14:08:52;10.10;67.80
46732;DHT22;32477;51.474;5.696;2023-02-28T14:11:45;9.40;69.70
46732;DHT22;32477;51.474;5.696;2023-02-28T14:17:07;9.40;69.50
46732;DHT22;32477;51.474;5.696;2023-02-28T14:19:36;8.70;70.30
46732;DHT22;32477;51.474;5.696;2023-02-28T14:27:48;8.20;70.40
46732;DHT22;32477;51.474;5.696;2023-02-28T14:30:43;8.10;71.90
46732;DHT22;32477;51.474;5.696;2023-02-28T14:36:32;7.40;73.10
46732;DHT22;32477;51.474;5.696;2023-02-28T14:39:04;7.60;73.10
46732;DHT22;32477;51.474;5.696;2023-02-28T14:41:31;8.00;72.60
46732;DHT22;32477;51.474;5.696;2023-02-28T14:44:02;8.40;72.30
46732;DHT22;32477;51.474;5.696;2023-02-28T14:46:39;8.70;70.50
46732;DHT22;32477;51.474;5.696;2023-02-28T14:49:07;8.20;72.40
46732;DHT22;32477;51.474;5.696;2023-02-28T14:51:37;7.60;73.30
46732;DHT22;32477;51.474;5.696;2023-02-28T14:54:03;7.70;74.50
46732;DHT22;32477;51.474;5.696;2023-02-28T14:56:37;8.00;72.30
46732;DHT22;32477;51.474;5.696;2023-02-28T14:59:05;7.90;73.30
46732;DHT22;32477;51.474;5.696;2023-02-28T15:01:31;8.30;72.70
46732;DHT22;32477;51.474;5.696;2023-02-28T15:04:03;8.50;72.30
46732;DHT22;32477;51.474;5.696;2023-02-28T15:06:29;8.50;72.00
46732;DHT22;32477;51.474;5.696;2023-02-28T15:09:15;8.50;71.70
46732;DHT22;32477;51.474;5.696;2023-02-28T15:11:42;8.40;72.40
46732;DHT22;32477;51.474;5.696;2023-02-28T15:14:18;8.50;73.10
46732;DHT22;32477;51.474;5.696;2023-02-28T15:16:48;8.60;71.30
46732;DHT22;32477;51.474;5.696;2023-02-28T15:19:23;8.70;71.90
46732;DHT22;32477;51.474;5.696;2023-02-28T15:21:56;8.90;70.90
46732;DHT22;32477;51.474;5.696;2023-02-28T15:24:38;8.80;71.60
46732;DHT22;32477;51.474;5.696;2023-02-28T15:27:07;8.60;71.70
46732;DHT22;32477;51.474;5.696;2023-02-28T15:29:43;8.40;72.10
46732;DHT22;32477;51.474;5.696;2023-02-28T15:34:49;7.90;73.60
46732;DHT22;32477;51.474;5.696;2023-02-28T15:37:51;7.50;75.30
46732;DHT22;32477;51.474;5.696;2023-02-28T15:40:49;6.60;78.20
46732;DHT22;32477;51.474;5.696;2023-02-28T15:43:32;6.20;79.50
46732;DHT22;32477;51.474;5.696;2023-02-28T15:46:01;5.90;80.60
46732;DHT22;32477;51.474;5.696;2023-02-28T15:51:07;5.80;83.40
46732;DHT22;32477;51.474;5.696;2023-02-28T15:53:36;5.80;83.20
46732;DHT22;32477;51.474;5.696;2023-02-28T15:56:27;5.70;83.50
46732;DHT22;32477;51.474;5.696;2023-02-28T15:59:01;5.60;84.40
46732;DHT22;32477;51.474;5.696;2023-02-28T16:01:35;5.60;85.80
46732;DHT22;32477;51.474;5.696;2023-02-28T16:04:03;5.60;85.20
46732;DHT22;32477;51.474;5.696;2023-02-28T16:09:04;5.50;87.10
46732;DHT22;32477;51.474;5.696;2023-02-28T16:11:31;5.50;86.30
46732;DHT22;32477;51.474;5.696;2023-02-28T16:13:58;5.40;86.70
46732;DHT22;32477;51.474;5.696;2023-02-28T16:16:24;5.40;87.60
46732;DHT22;32477;51.474;5.696;2023-02-28T16:18:51;5.30;88.90
46732;DHT22;32477;51.474;5.696;2023-02-28T16:21:17;5.30;89.70
46732;DHT22;32477;51.474;5.696;2023-02-28T16:23:43;5.20;89.90
46732;DHT22;32477;51.474;5.696;2023-02-28T16:26:18;5.20;90.20
46732;DHT22;32477;51.474;5.696;2023-02-28T16:28:44;5.20;90.40
46732;DHT22;32477;51.474;5.696;2023-02-28T16:31:11;5.10;90.90
46732;DHT22;32477;51.474;5.696;2023-02-28T16:33:42;5.10;90.20
46732;DHT22;32477;51.474;5.696;2023-02-28T16:36:13;5.00;90.60
46732;DHT22;32477;51.474;5.696;2023-02-28T16:38:39;4.90;91.40
46732;DHT22;32477;51.474;5.696;2023-02-28T16:41:05;4.90;91.50
46732;DHT22;32477;51.474;5.696;2023-02-28T16:43:31;4.80;91.50
46732;DHT22;32477;51.474;5.696;2023-02-28T16:45:58;4.80;92.00
46732;DHT22;32477;51.474;5.696;2023-02-28T16:48:24;4.70;92.60
46732;DHT22;32477;51.474;5.696;2023-02-28T16:50:50;4.70;92.80
46732;DHT22;32477;51.474;5.696;2023-02-28T16:53:16;4.50;93.10
46732;DHT22;32477;51.474;5.696;2023-02-28T16:55:42;4.30;93.80
46732;DHT22;32477;51.474;5.696;2023-02-28T16:58:14;4.20;94.50
46732;DHT22;32477;51.474;5.696;2023-02-28T17:00:40;4.20;95.10
46732;DHT22;32477;51.474;5.696;2023-02-28T17:03:24;4.00;95.40
46732;DHT22;32477;51.474;5.696;2023-02-28T17:05:50;4.10;96.10
46732;DHT22;32477;51.474;5.696;2023-02-28T17:08:16;4.00;96.30
46732;DHT22;32477;51.474;5.696;2023-02-28T17:10:42;3.80;96.40
46732;DHT22;32477;51.474;5.696;2023-02-28T17:13:07;3.70;97.30
46732;DHT22;32477;51.474;5.696;2023-02-28T17:15:33;3.70;97.10
46732;DHT22;32477;51.474;5.696;2023-02-28T17:17:58;3.70;97.40
46732;DHT22;32477;51.474;5.696;2023-02-28T17:20:24;3.60;97.90
46732;DHT22;32477;51.474;5.696;2023-02-28T17:22:52;3.50;98.60
46732;DHT22;32477;51.474;5.696;2023-02-28T17:25:17;3.40;98.90
46732;DHT22;32477;51.474;5.696;2023-02-28T17:27:43;3.30;99.30
46732;DHT22;32477;51.474;5.696;2023-02-28T17:30:24;3.20;99.60
46732;DHT22;32477;51.474;5.696;2023-02-28T17:32:53;3.10;99.90
46732;DHT22;32477;51.474;5.696;2023-02-28T17:35:19;2.90;99.90
46732;DHT22;32477;51.474;5.696;2023-02-28T17:37:45;2.80;99.90
46732;DHT22;32477;51.474;5.696;2023-02-28T17:40:20;2.60;99.90
46732;DHT22;32477;51.474;5.696;2023-02-28T17:42:45;2.60;99.90
46732;DHT22;32477;51.474;5.696;2023-02-28T17:45:12;2.50;99.90
46732;DHT22;32477;51.474;5.696;2023-02-28T17:47:39;2.50;99.90
46732;DHT22;32477;51.474;5.696;2023-02-28T17:50:05;2.40;99.90
46732;DHT22;32477;51.474;5.696;2023-02-28T17:52:31;2.40;99.90
46732;DHT22;32477;51.474;5.696;2023-02-28T17:55:02;2.30;99.90
46732;DHT22;32477;51.474;5.696;2023-02-28T17:57:28;2.20;99.90
46732;DHT22;32477;51.474;5.696;2023-02-28T17:59:53;2.10;99.90
46732;DHT22;32477;51.474;5.696;2023-02-28T18:02:19;2.00;99.90
46732;DHT22;32477;51.474;5.696;2023-02-28T18:04:45;1.90;99.90
46732;DHT22;32477;51.474;5.696;2023-02-28T18:07:11;1.80;99.90
46732;DHT22;32477;51.474;5.696;2023-02-28T18:09:37;1.80;99.90
46732;DHT22;32477;51.474;5.696;2023-02-28T18:12:02;1.80;99.90
46732;DHT22;32477;51.474;5.696;2023-02-28T18:14:28;1.70;99.90